Time;durP1;ratioP1;P1;durP2;ratioP2;P2;SDS_P1;SDS_P2;PMS_P1;PMS_P2;Temp;Humidity;BMP_temperature;BMP_pressure;BME280_temperature;BME280_humidity;BME280_pressure;Samples;Min_cycle;Max_cycle;Signal;HPM_P1;HPM_P2
2023/12/10 00:01:00;;;;;;;26.45;16.25;;;;;;;0.59;100.00;96898.09;1224498;75;2950495;-72
2023/12/10 00:03:33;;;;;;;22.80;14.40;;;;;;;0.75;100.00;96891.88;1224522;75;2915365;-69
2023/12/10 00:06:06;;;;;;;23.10;13.65;;;;;;;0.66;100.00;96902.53;1225419;75;2917284;-65
2023/12/10 00:08:39;;;;;;;32.45;19.55;;;;;;;0.38;100.00;96897.47;1224824;75;2921270;-69
2023/12/10 00:11:15;;;;;;;51.60;28.40;;;;;;;-0.07;100.00;96890.22;1224055;75;2919647;-65
2023/12/10 00:13:47;;;;;;;57.45;31.80;;;;;;;0.03;100.00;96893.06;1224126;75;2924654;-70
2023/12/10 00:16:20;;;;;;;54.15;30.45;;;;;;;-0.04;100.00;96883.97;1224802;75;2925180;-67
2023/12/10 00:18:53;;;;;;;84.50;43.70;;;;;;;-0.10;100.00;96882.97;1224335;75;2927258;-67
2023/12/10 00:21:26;;;;;;;74.00;38.45;;;;;;;0.04;100.00;96884.53;1225079;75;2920534;-66
2023/12/10 00:23:59;;;;;;;67.15;37.95;;;;;;;0.06;100.00;96876.81;1224081;75;2916512;-69
2023/12/10 00:26:35;;;;;;;58.95;34.05;;;;;;;-0.10;100.00;96882.97;1224878;75;2919515;-70
2023/12/10 00:29:08;;;;;;;55.10;30.05;;;;;;;-0.12;100.00;96871.91;1224588;75;2921471;-68
2023/12/10 00:31:41;;;;;;;55.00;31.15;;;;;;;0.05;100.00;96875.31;1225256;75;2922187;-69
2023/12/10 00:34:14;;;;;;;50.50;29.70;;;;;;;-0.01;100.00;96888.50;1225656;75;2924367;-71
2023/12/10 00:36:47;;;;;;;46.10;26.20;;;;;;;0.13;100.00;96878.56;1224696;75;2955039;-68
2023/12/10 00:39:20;;;;;;;43.65;26.60;;;;;;;0.11;100.00;96878.22;1224909;75;2922090;-68
2023/12/10 00:41:55;;;;;;;39.85;23.55;;;;;;;0.29;100.00;96853.50;1225406;75;2922412;-68
2023/12/10 00:44:28;;;;;;;34.25;21.55;;;;;;;0.42;100.00;96848.94;1225172;75;2914213;-66
2023/12/10 00:47:01;;;;;;;27.25;17.25;;;;;;;0.60;100.00;96853.78;1225329;75;2922103;-70
2023/12/10 00:49:34;;;;;;;28.80;16.90;;;;;;;0.63;100.00;96850.28;1223881;75;2921817;-66
2023/12/10 00:52:08;;;;;;;26.20;15.95;;;;;;;0.62;100.00;96849.50;1224711;75;2929368;-70
2023/12/10 00:54:40;;;;;;;24.40;15.25;;;;;;;0.67;100.00;96842.81;1224645;75;2936399;-70
2023/12/10 00:57:16;;;;;;;26.10;15.90;;;;;;;0.68;100.00;96849.72;1223836;75;2928473;-70
2023/12/10 00:59:49;;;;;;;44.95;25.00;;;;;;;0.24;100.00;96856.72;1225369;75;2929029;-70
2023/12/10 01:02:23;;;;;;;48.70;27.70;;;;;;;0.12;100.00;96845.50;1224387;75;2927345;-71
2023/12/10 01:04:55;;;;;;;49.40;28.95;;;;;;;0.06;100.00;96841.06;1224641;75;2920667;-66
2023/12/10 01:07:28;;;;;;;49.70;29.05;;;;;;;0.11;100.00;96838.59;1224648;75;2916539;-68
2023/12/10 01:10:04;;;;;;;47.70;27.95;;;;;;;0.15;100.00;96851.97;1221723;75;2927465;-66
2023/12/10 01:12:40;;;;;;;44.60;26.25;;;;;;;0.13;100.00;96852.41;1225092;75;2917280;-68
2023/12/10 01:15:14;;;;;;;36.15;20.95;;;;;;;0.40;100.00;96845.91;1223949;75;2925115;-68
2023/12/10 01:17:47;;;;;;;43.35;24.40;;;;;;;0.13;100.00;96848.97;1225073;75;2923068;-66
2023/12/10 01:20:19;;;;;;;52.80;29.45;;;;;;;0.10;100.00;96847.13;1224627;75;2922992;-70
2023/12/10 01:22:52;;;;;;;38.80;24.80;;;;;;;0.36;100.00;96856.00;1224450;75;2922717;-64
2023/12/10 01:25:26;;;;;;;35.20;20.80;;;;;;;0.39;100.00;96861.31;1225810;75;2916948;-66
2023/12/10 01:28:01;;;;;;;40.90;25.40;;;;;;;0.25;100.00;96856.31;1224981;75;2914587;-70
2023/12/10 01:30:34;;;;;;;49.60;29.05;;;;;;;0.18;100.00;96864.59;1224657;75;2924916;-69
2023/12/10 01:33:07;;;;;;;46.00;27.70;;;;;;;0.10;100.00;96860.56;1224682;67;2919108;-67
2023/12/10 01:35:40;;;;;;;50.05;29.50;;;;;;;-0.08;100.00;96858.34;1224515;75;2921613;-70
2023/12/10 01:38:13;;;;;;;47.70;27.45;;;;;;;0.33;100.00;96854.19;1224978;75;2889603;-68
2023/12/10 01:40:46;;;;;;;39.30;24.65;;;;;;;0.45;100.00;96850.00;1225481;75;2918616;-71
2023/12/10 01:43:22;;;;;;;49.20;28.85;;;;;;;0.01;100.00;96852.34;1224902;75;2935619;-70
2023/12/10 01:45:55;;;;;;;45.65;27.40;;;;;;;0.27;100.00;96851.25;1225754;75;2915380;-69
2023/12/10 01:48:28;;;;;;;39.70;23.80;;;;;;;0.58;100.00;96834.63;1224591;75;2922962;-71
2023/12/10 01:51:02;;;;;;;34.30;20.60;;;;;;;0.60;100.00;96834.94;1224749;75;2926347;-67
2023/12/10 01:53:35;;;;;;;31.85;19.20;;;;;;;0.31;100.00;96837.69;1225030;75;2920096;-72
2023/12/10 01:56:10;;;;;;;37.95;23.55;;;;;;;0.33;100.00;96829.94;1224825;75;2928614;-68
2023/12/10 01:58:46;;;;;;;41.10;24.90;;;;;;;0.39;100.00;96837.06;1224434;75;2919216;-67
2023/12/10 02:01:20;;;;;;;52.20;29.10;;;;;;;0.04;100.00;96833.41;1224210;75;2918635;-72
2023/12/10 02:03:53;;;;;;;50.30;29.45;;;;;;;0.13;100.00;96835.50;1224669;75;2922980;-66
2023/12/10 02:06:26;;;;;;;40.20;23.65;;;;;;;0.51;100.00;96824.06;1225104;75;2924651;-69
2023/12/10 02:08:59;;;;;;;48.15;27.10;;;;;;;0.06;100.00;96822.25;1224173;75;2929107;-68
2023/12/10 02:11:31;;;;;;;50.55;26.85;;;;;;;0.07;100.00;96827.19;1224832;75;2919819;-66
2023/12/10 02:14:07;;;;;;;55.60;28.75;;;;;;;-0.15;100.00;96845.81;1224524;75;2926816;-72
2023/12/10 02:16:40;;;;;;;49.65;28.10;;;;;;;0.06;100.00;96833.00;1223631;75;2925567;-69
2023/12/10 02:19:13;;;;;;;40.50;23.95;;;;;;;0.37;100.00;96841.38;1224853;75;2923786;-69
2023/12/10 02:21:49;;;;;;;43.95;24.15;;;;;;;0.23;100.00;96844.47;1225645;75;2925011;-70
2023/12/10 02:24:29;;;;;;;45.35;27.35;;;;;;;0.12;100.00;96855.50;1225114;75;2920450;-69
2023/12/10 02:27:05;;;;;;;42.00;25.60;;;;;;;0.28;100.00;96849.31;1224837;75;2922199;-68
2023/12/10 02:29:38;;;;;;;48.10;28.15;;;;;;;0.14;100.00;96845.81;1224594;75;2923868;-67
2023/12/10 02:32:11;;;;;;;44.50;25.70;;;;;;;0.24;100.00;96860.19;1224944;75;2918568;-68
2023/12/10 02:34:44;;;;;;;44.35;26.60;;;;;;;0.15;100.00;96846.59;1224516;75;2922350;-65
2023/12/10 02:37:17;;;;;;;39.25;24.60;;;;;;;0.29;100.00;96848.13;1225095;75;2923074;-70
2023/12/10 02:39:50;;;;;;;47.00;27.15;;;;;;;0.13;100.00;96846.25;1223735;75;2917628;-68
2023/12/10 02:42:25;;;;;;;38.40;24.50;;;;;;;0.40;100.00;96845.91;1224687;75;2919960;-67
2023/12/10 02:44:58;;;;;;;43.50;26.05;;;;;;;0.23;100.00;96853.28;1224943;75;2923561;-69
2023/12/10 02:47:31;;;;;;;42.80;25.55;;;;;;;0.32;100.00;96863.44;1224861;75;2922550;-68
2023/12/10 02:50:04;;;;;;;36.95;22.40;;;;;;;0.33;100.00;96849.53;1225013;75;2911928;-69
2023/12/10 02:52:39;;;;;;;34.05;21.65;;;;;;;0.49;100.00;96839.91;1224538;75;2929906;-69
2023/12/10 02:55:12;;;;;;;31.65;20.15;;;;;;;0.48;100.00;96846.44;1225404;75;2924043;-70
2023/12/10 02:57:48;;;;;;;29.20;18.45;;;;;;;0.35;100.00;96841.78;1224634;75;2914982;-67
2023/12/10 03:00:21;;;;;;;27.10;17.20;;;;;;;0.66;100.00;96833.25;1224659;75;2921804;-66
2023/12/10 03:02:54;;;;;;;22.55;14.45;;;;;;;0.74;100.00;96831.84;1224435;75;2922513;-70
2023/12/10 03:05:27;;;;;;;24.35;15.65;;;;;;;0.58;100.00;96843.47;1224908;75;2921472;-68
2023/12/10 03:08:00;;;;;;;19.35;13.05;;;;;;;0.71;100.00;96840.78;1224122;75;2924280;-69
2023/12/10 03:10:32;;;;;;;22.75;13.15;;;;;;;0.77;100.00;96835.59;1224283;75;2920305;-67
2023/12/10 03:13:08;;;;;;;17.75;10.95;;;;;;;0.66;100.00;96845.97;1225125;75;2914772;-67
2023/12/10 03:15:41;;;;;;;21.65;13.95;;;;;;;0.60;100.00;96843.03;1221600;67;3016007;-66
2023/12/10 03:18:14;;;;;;;18.80;11.75;;;;;;;0.74;100.00;96837.22;1224674;75;2921378;-71
2023/12/10 03:20:47;;;;;;;16.10;10.55;;;;;;;0.70;100.00;96822.34;1224813;75;2919076;-70
2023/12/10 03:23:21;;;;;;;17.75;10.95;;;;;;;0.73;100.00;96834.97;1224500;75;2918489;-70
2023/12/10 03:25:54;;;;;;;23.95;13.75;;;;;;;0.56;100.00;96837.00;1224644;75;2923027;-70
2023/12/10 03:28:29;;;;;;;22.05;13.75;;;;;;;0.50;100.00;96844.09;1224241;75;2923786;-69
2023/12/10 03:31:03;;;;;;;21.65;13.15;;;;;;;0.74;100.00;96852.63;1224929;75;2916964;-68
2023/12/10 03:33:35;;;;;;;18.15;11.35;;;;;;;0.67;100.00;96853.59;1225370;75;2929616;-66
2023/12/10 03:36:09;;;;;;;26.10;16.30;;;;;;;0.51;100.00;96853.69;1223513;75;2932648;-67
2023/12/10 03:38:42;;;;;;;28.55;16.30;;;;;;;0.42;100.00;96852.38;1224625;75;2923138;-68
2023/12/10 03:41:15;;;;;;;37.05;21.95;;;;;;;0.21;100.00;96852.94;1225116;75;2915062;-70
2023/12/10 03:43:51;;;;;;;35.95;21.95;;;;;;;0.21;100.00;96842.19;1224793;75;2917752;-69
2023/12/10 03:46:24;;;;;;;31.55;21.20;;;;;;;0.55;100.00;96841.63;1223835;75;2942091;-70
2023/12/10 03:48:56;;;;;;;24.00;15.20;;;;;;;0.74;100.00;96831.09;1225225;75;2914010;-69
2023/12/10 03:51:29;;;;;;;32.35;18.95;;;;;;;0.21;100.00;96837.56;1224958;75;2922247;-72
2023/12/10 03:54:03;;;;;;;37.05;22.30;;;;;;;0.07;100.00;96829.88;1224764;75;2919386;-69
2023/12/10 03:56:36;;;;;;;32.25;19.85;;;;;;;0.36;100.00;96837.94;1224864;75;2932723;-66
2023/12/10 03:59:11;;;;;;;25.50;16.45;;;;;;;0.35;100.00;96836.41;1225107;75;2918587;-68
2023/12/10 04:01:45;;;;;;;25.35;15.85;;;;;;;0.49;100.00;96834.50;1224535;75;2923679;-69
2023/12/10 04:04:18;;;;;;;23.15;14.80;;;;;;;0.30;100.00;96831.56;1224886;75;2927085;-67
2023/12/10 04:06:51;;;;;;;25.90;16.30;;;;;;;0.20;100.00;96835.31;1225255;67;2923595;-68
2023/12/10 04:09:24;;;;;;;28.20;17.75;;;;;;;0.11;100.00;96829.78;1223696;75;2933025;-70
2023/12/10 04:11:59;;;;;;;26.75;17.60;;;;;;;0.11;100.00;96840.53;1225312;75;2922800;-70
2023/12/10 04:14:35;;;;;;;24.25;15.90;;;;;;;0.28;100.00;96855.44;1224326;75;2929851;-66
2023/12/10 04:17:08;;;;;;;33.95;19.50;;;;;;;0.03;100.00;96850.75;1225344;75;2917133;-68
2023/12/10 04:19:41;;;;;;;38.80;22.60;;;;;;;-0.01;100.00;96840.06;1225111;75;2916811;-66
2023/12/10 04:22:14;;;;;;;29.55;19.25;;;;;;;0.40;100.00;96843.97;1225072;75;2937265;-68
2023/12/10 04:24:47;;;;;;;25.25;15.80;;;;;;;0.40;100.00;96838.56;1224465;75;2918707;-69
2023/12/10 04:27:22;;;;;;;23.65;15.05;;;;;;;0.63;100.00;96850.28;1225074;75;2927096;-69
2023/12/10 04:29:58;;;;;;;19.70;12.75;;;;;;;0.37;100.00;96836.75;1226090;75;2932193;-71
2023/12/10 04:32:31;;;;;;;19.45;12.85;;;;;;;0.37;100.00;96844.06;1225078;75;2923975;-66
2023/12/10 04:35:04;;;;;;;17.95;11.55;;;;;;;0.58;100.00;96848.84;1224300;75;2925051;-71
2023/12/10 04:37:36;;;;;;;15.20;10.05;;;;;;;0.51;100.00;96845.63;1225152;75;2952483;-68
2023/12/10 04:40:12;;;;;;;17.50;11.30;;;;;;;0.51;100.00;96851.75;1223696;75;2935320;-67
2023/12/10 04:42:45;;;;;;;25.50;16.35;;;;;;;0.03;100.00;96845.38;1225800;75;2924064;-70
2023/12/10 04:45:20;;;;;;;31.15;17.60;;;;;;;0.08;100.00;96849.47;1224549;75;2923797;-71
2023/12/10 04:47:53;;;;;;;31.40;19.05;;;;;;;-0.03;100.00;96853.19;1224796;75;2925494;-68
2023/12/10 04:50:26;;;;;;;36.50;21.80;;;;;;;-0.12;100.00;96849.59;1225237;75;2920469;-71
2023/12/10 04:52:59;;;;;;;34.70;21.55;;;;;;;0.07;100.00;96867.53;1224242;75;2933895;-68
2023/12/10 04:55:32;;;;;;;27.70;18.40;;;;;;;0.20;100.00;96876.44;1224243;75;2924682;-66
2023/12/10 04:58:05;;;;;;;26.60;16.80;;;;;;;0.17;100.00;96871.16;1225861;75;2924179;-71
2023/12/10 05:00:40;;;;;;;24.35;14.60;;;;;;;0.38;100.00;96873.25;1224649;75;2924710;-67
2023/12/10 05:03:13;;;;;;;20.75;13.55;;;;;;;0.33;100.00;96884.53;1224661;75;2921661;-70
2023/12/10 05:05:46;;;;;;;25.15;15.60;;;;;;;0.21;100.00;96879.88;1225472;75;2923398;-69
2023/12/10 05:08:19;;;;;;;23.85;15.30;;;;;;;0.12;100.00;96888.56;1224545;75;2917243;-68
2023/12/10 05:10:52;;;;;;;26.60;16.25;;;;;;;0.19;100.00;96890.31;1225411;75;2920712;-69
2023/12/10 05:13:25;;;;;;;34.85;20.50;;;;;;;-0.19;100.00;96877.44;1225764;75;2916379;-69
2023/12/10 05:16:00;;;;;;;44.60;26.35;;;;;;;-0.33;100.00;96877.81;1224599;75;2914566;-70
2023/12/10 05:18:34;;;;;;;40.40;24.70;;;;;;;-0.20;100.00;96885.94;1224684;75;2921977;-66
2023/12/10 05:21:07;;;;;;;43.55;24.40;;;;;;;-0.32;100.00;96890.81;1225435;75;2888037;-67
2023/12/10 05:23:40;;;;;;;37.45;22.90;;;;;;;-0.17;100.00;96910.03;1224377;75;2926410;-67
2023/12/10 05:26:13;;;;;;;31.95;21.00;;;;;;;-0.07;100.00;96910.97;1222572;75;2923804;-64
2023/12/10 05:28:46;;;;;;;36.95;21.80;;;;;;;0.01;100.00;96922.31;1225426;75;2922185;-67
2023/12/10 05:31:22;;;;;;;38.40;23.00;;;;;;;-0.19;100.00;96925.09;1224346;75;2922535;-67
2023/12/10 05:33:54;;;;;;;34.90;21.20;;;;;;;-0.16;100.00;96918.88;1223546;75;2937965;-66
2023/12/10 05:36:27;;;;;;;28.00;17.55;;;;;;;0.10;100.00;96922.47;1225357;75;2920463;-65
2023/12/10 05:39:00;;;;;;;26.30;16.10;;;;;;;-0.07;100.00;96921.75;1224870;75;2915186;-69
2023/12/10 05:41:33;;;;;;;30.55;18.50;;;;;;;-0.03;100.00;96919.69;1224796;75;2927222;-67
2023/12/10 05:44:06;;;;;;;23.35;15.00;;;;;;;0.17;100.00;96935.75;1225199;75;2914396;-66
2023/12/10 05:46:42;;;;;;;24.50;16.45;;;;;;;0.04;100.00;96941.03;1224683;75;2924914;-68
2023/12/10 05:49:15;;;;;;;22.40;14.25;;;;;;;0.10;100.00;96955.50;1225277;75;2931001;-67
2023/12/10 05:51:48;;;;;;;22.20;15.10;;;;;;;-0.10;100.00;96965.59;1224114;75;2922037;-65
2023/12/10 05:54:21;;;;;;;19.90;12.85;;;;;;;0.18;100.00;96966.84;1224800;75;2923117;-64
2023/12/10 05:56:53;;;;;;;20.75;13.25;;;;;;;0.11;100.00;96972.41;1223665;75;2916020;-68
2023/12/10 05:59:27;;;;;;;20.95;13.20;;;;;;;0.13;100.00;96976.19;1225001;75;2916438;-64
2023/12/10 06:02:03;;;;;;;21.65;13.45;;;;;;;-0.12;100.00;96974.13;1223843;75;2919792;-70
2023/12/10 06:04:36;;;;;;;27.55;16.75;;;;;;;-0.04;100.00;96982.78;1222387;75;2964434;-67
2023/12/10 06:07:08;;;;;;;23.85;15.15;;;;;;;0.06;100.00;96992.50;1225243;75;2927252;-69
2023/12/10 06:09:41;;;;;;;19.65;13.20;;;;;;;0.08;100.00;96994.78;1224762;75;2918548;-67
2023/12/10 06:12:14;;;;;;;25.75;15.80;;;;;;;-0.30;100.00;96992.59;1223881;75;2921756;-70
2023/12/10 06:14:47;;;;;;;36.00;21.30;;;;;;;-0.37;100.00;96987.38;1225054;75;2914702;-68
2023/12/10 06:17:23;;;;;;;30.55;19.60;;;;;;;-0.12;100.00;97002.94;1224236;75;2916229;-69
2023/12/10 06:19:56;;;;;;;25.30;16.05;;;;;;;-0.05;100.00;96995.47;1225533;75;2915622;-70
2023/12/10 06:22:29;;;;;;;27.50;16.85;;;;;;;-0.05;100.00;97002.75;1224846;75;2920804;-68
2023/12/10 06:25:01;;;;;;;31.15;18.85;;;;;;;-0.29;100.00;96996.78;1224115;75;2919076;-69
2023/12/10 06:27:34;;;;;;;27.85;16.70;;;;;;;-0.13;100.00;96998.75;1223625;75;2912633;-70
2023/12/10 06:30:09;;;;;;;26.30;16.60;;;;;;;-0.17;100.00;96992.69;1225089;75;2920928;-67
2023/12/10 06:32:45;;;;;;;28.90;17.65;;;;;;;-0.10;100.00;96993.25;1225254;75;2917513;-69
2023/12/10 06:35:18;;;;;;;22.95;14.65;;;;;;;0.05;100.00;97001.00;1224863;75;2926902;-69
2023/12/10 06:37:51;;;;;;;17.65;12.70;;;;;;;0.03;100.00;97011.44;1224844;75;2914220;-67
2023/12/10 06:40:24;;;;;;;30.05;18.50;;;;;;;-0.27;100.00;97024.03;1224649;75;2921094;-69
2023/12/10 06:42:57;;;;;;;24.15;16.20;;;;;;;-0.04;100.00;97017.75;1223510;75;2919932;-66
2023/12/10 06:45:29;;;;;;;20.15;14.35;;;;;;;0.02;100.00;97034.13;1224386;75;2929734;-69
2023/12/10 06:48:06;;;;;;;29.65;16.95;;;;;;;-0.38;100.00;97024.28;1224402;75;2920788;-65
2023/12/10 06:50:39;;;;;;;32.65;21.55;;;;;;;-0.52;100.00;97022.66;1224906;75;2916201;-68
2023/12/10 06:53:12;;;;;;;34.40;21.10;;;;;;;-0.34;100.00;97026.88;1224339;75;2920836;-69
2023/12/10 06:55:45;;;;;;;37.05;23.65;;;;;;;-0.50;100.00;97049.13;1225321;75;2927529;-69
2023/12/10 06:58:18;;;;;;;49.20;29.50;;;;;;;-0.71;100.00;97026.13;1224806;75;2918582;-68
2023/12/10 07:00:51;;;;;;;52.40;29.65;;;;;;;-0.58;100.00;97051.19;1223595;75;2933088;-68
2023/12/10 07:03:26;;;;;;;48.95;29.50;;;;;;;-0.56;100.00;97045.41;1223563;75;2926501;-70
2023/12/10 07:06:03;;;;;;;47.00;29.55;;;;;;;-0.75;100.00;97036.19;1224249;75;2921452;-66
2023/12/10 07:08:36;;;;;;;48.75;28.70;;;;;;;-0.53;100.00;97042.66;1225224;75;2917442;-67
2023/12/10 07:11:10;;;;;;;43.00;26.80;;;;;;;-0.59;100.00;97047.00;1224526;75;2924799;-69
2023/12/10 07:13:43;;;;;;;40.25;25.00;;;;;;;-0.55;100.00;97041.56;1224669;75;2916514;-68
2023/12/10 07:16:16;;;;;;;49.25;29.30;;;;;;;-0.76;100.00;97040.81;1225083;75;2919673;-68
2023/12/10 07:18:52;;;;;;;51.40;30.85;;;;;;;-0.65;100.00;97052.09;1224443;75;2928073;-71
2023/12/10 07:21:25;;;;;;;44.90;28.10;;;;;;;-0.55;100.00;97055.00;1225514;75;2930997;-70
2023/12/10 07:23:57;;;;;;;45.50;27.95;;;;;;;-0.41;100.00;97054.66;1224578;75;2913150;-69
2023/12/10 07:26:30;;;;;;;39.70;24.60;;;;;;;-0.36;100.00;97061.50;1225108;75;2919019;-69
2023/12/10 07:29:04;;;;;;;54.70;31.80;;;;;;;-0.66;100.00;97077.44;1224524;75;2919784;-68
2023/12/10 07:31:37;;;;;;;45.05;26.95;;;;;;;-0.43;100.00;97071.22;1224711;75;2918051;-67
2023/12/10 07:34:12;;;;;;;48.35;29.45;;;;;;;-0.51;100.00;97095.97;1224248;75;2922554;-69
2023/12/10 07:36:45;;;;;;;54.15;31.55;;;;;;;-0.45;100.00;97089.72;1224731;75;2927755;-69
2023/12/10 07:39:18;;;;;;;48.55;28.70;;;;;;;-0.34;100.00;97086.03;1224070;75;2914719;-67
2023/12/10 07:41:51;;;;;;;46.90;28.05;;;;;;;-0.37;100.00;97111.06;1224751;75;2937600;-70
2023/12/10 07:44:25;;;;;;;48.10;28.80;;;;;;;-0.33;100.00;97114.47;1224993;75;2916771;-70
2023/12/10 07:46:58;;;;;;;48.05;28.95;;;;;;;-0.26;100.00;97109.69;1224658;75;2921264;-67
2023/12/10 07:49:34;;;;;;;40.15;24.50;;;;;;;-0.08;100.00;97135.44;1224833;75;2923742;-69
2023/12/10 07:52:08;;;;;;;55.75;37.15;;;;;;;-0.06;100.00;97125.03;1225944;75;2923994;-69
2023/12/10 07:54:41;;;;;;;42.95;29.05;;;;;;;0.19;100.00;97119.88;1224851;75;2922607;-68
2023/12/10 07:57:14;;;;;;;37.95;24.25;;;;;;;0.01;100.00;97124.88;1226440;75;2924896;-67
2023/12/10 07:59:47;;;;;;;35.60;23.70;;;;;;;0.09;100.00;97130.84;1227108;75;2918708;-72
2023/12/10 08:02:20;;;;;;;31.65;20.00;;;;;;;0.32;100.00;97135.34;1224746;75;2925921;-68
2023/12/10 08:04:56;;;;;;;25.75;16.90;;;;;;;0.42;100.00;97143.16;1224707;75;2923524;-72
2023/12/10 08:07:29;;;;;;;32.10;19.90;;;;;;;0.09;100.00;97149.69;1224963;75;2928785;-66
2023/12/10 08:10:02;;;;;;;27.55;17.90;;;;;;;0.32;100.00;97162.25;1225114;75;2924895;-69
2023/12/10 08:12:34;;;;;;;47.75;28.65;;;;;;;-0.40;100.00;97171.06;1224551;75;2913866;-70
2023/12/10 08:15:08;;;;;;;48.10;29.15;;;;;;;-0.09;100.00;97152.78;1225879;75;2920382;-71
2023/12/10 08:17:41;;;;;;;37.45;24.05;;;;;;;0.28;100.00;97151.56;1224293;75;2927322;-70
2023/12/10 08:20:17;;;;;;;35.25;23.60;;;;;;;0.21;100.00;97165.19;1224937;75;2902121;-66
2023/12/10 08:22:50;;;;;;;43.55;27.30;;;;;;;-0.01;100.00;97162.94;1224836;75;2897870;-67
2023/12/10 08:25:24;;;;;;;43.80;24.75;;;;;;;0.10;100.00;97160.03;1223757;75;2927202;-68
2023/12/10 08:27:56;;;;;;;41.55;26.30;;;;;;;-0.05;100.00;97199.16;1225285;75;2920299;-67
2023/12/10 08:30:29;;;;;;;52.65;32.55;;;;;;;-0.23;100.00;97169.94;1223944;75;2924395;-69
2023/12/10 08:33:02;;;;;;;42.55;27.20;;;;;;;0.34;100.00;97181.47;1224450;75;2916610;-68
2023/12/10 08:35:38;;;;;;;50.50;31.55;;;;;;;0.05;100.00;97216.28;1224622;75;2923002;-69
2023/12/10 08:38:11;;;;;;;46.05;28.85;;;;;;;0.14;100.00;97189.56;1224894;75;2917450;-69
2023/12/10 08:40:44;;;;;;;45.90;27.90;;;;;;;0.41;100.00;97197.44;1224482;75;2934192;-71
2023/12/10 08:43:17;;;;;;;48.80;30.15;;;;;;;0.26;100.00;97225.84;1225224;75;2919612;-67
2023/12/10 08:45:50;;;;;;;51.70;29.35;;;;;;;0.39;100.00;97216.72;1224548;75;2925752;-68
2023/12/10 08:48:23;;;;;;;46.00;29.95;;;;;;;0.71;100.00;97215.22;1223649;75;2925713;-71
2023/12/10 08:50:59;;;;;;;36.00;24.05;;;;;;;0.92;100.00;97226.69;1225130;75;2932038;-69
2023/12/10 08:53:32;;;;;;;39.50;25.00;;;;;;;0.71;100.00;97233.31;1223971;75;2922625;-71
2023/12/10 08:56:04;;;;;;;36.30;22.35;;;;;;;0.85;100.00;97241.84;1225648;75;2919935;-69
2023/12/10 08:58:37;;;;;;;43.90;27.60;;;;;;;0.41;100.00;97241.28;1224678;75;2922675;-70
2023/12/10 09:01:10;;;;;;;40.90;26.55;;;;;;;0.82;100.00;97241.94;1224649;75;2922261;-70
2023/12/10 09:03:45;;;;;;;45.20;26.85;;;;;;;0.50;100.00;97234.56;1224869;75;2924674;-68
2023/12/10 09:06:20;;;;;;;34.05;23.50;;;;;;;1.06;100.00;97256.75;1224750;75;2924476;-70
2023/12/10 09:08:53;;;;;;;37.65;24.00;;;;;;;0.74;100.00;97249.41;1223743;75;2931722;-68
2023/12/10 09:11:26;;;;;;;36.85;24.30;;;;;;;0.87;100.00;97240.66;1224654;75;2921643;-66
2023/12/10 09:13:59;;;;;;;47.05;29.40;;;;;;;0.73;100.00;97241.75;1225158;75;2918157;-69
2023/12/10 09:16:32;;;;;;;36.40;24.30;;;;;;;0.97;100.00;97253.88;1222981;75;2922233;-67
2023/12/10 09:19:05;;;;;;;34.85;22.05;;;;;;;1.23;100.00;97256.75;1224254;75;2923408;-70
2023/12/10 09:21:40;;;;;;;44.40;24.90;;;;;;;1.06;100.00;97256.00;1224328;75;2919904;-69
2023/12/10 09:24:13;;;;;;;31.90;20.65;;;;;;;1.52;100.00;97264.88;1223142;75;2928092;-69
2023/12/10 09:26:46;;;;;;;28.95;18.75;;;;;;;1.56;100.00;97273.63;1224914;75;2919717;-69
2023/12/10 09:29:19;;;;;;;26.45;17.15;;;;;;;1.72;100.00;97275.53;1224715;75;2916494;-67
2023/12/10 09:31:52;;;;;;;24.95;15.85;;;;;;;1.83;100.00;97278.72;1224686;75;2923953;-68
2023/12/10 09:34:25;;;;;;;26.30;16.75;;;;;;;1.74;100.00;97277.81;1224875;75;2916981;-68
2023/12/10 09:37:04;;;;;;;23.00;14.70;;;;;;;1.81;100.00;97291.13;1225555;75;2920639;-68
2023/12/10 09:39:37;;;;;;;32.30;20.70;;;;;;;1.66;100.00;97294.19;1224330;75;2921931;-70
2023/12/10 09:42:10;;;;;;;26.35;17.90;;;;;;;2.13;100.00;97293.72;1225395;75;2920509;-67
2023/12/10 09:44:43;;;;;;;22.80;15.20;;;;;;;2.23;100.00;97300.00;1224116;75;2927050;-71
2023/12/10 09:47:16;;;;;;;29.20;17.60;;;;;;;1.92;100.00;97303.16;1225235;75;2922100;-69
2023/12/10 09:49:50;;;;;;;30.00;18.75;;;;;;;2.05;100.00;97310.56;1225004;75;2919685;-69
2023/12/10 09:52:25;;;;;;;42.70;25.95;;;;;;;1.89;100.00;97295.16;1225537;75;2920702;-66
2023/12/10 09:54:58;;;;;;;46.10;27.95;;;;;;;1.57;100.00;97302.13;1225514;75;2917418;-68
2023/12/10 09:57:31;;;;;;;46.30;28.00;;;;;;;1.61;100.00;97285.84;1224439;75;2925493;-68
2023/12/10 10:00:06;;;;;;;43.85;26.85;;;;;;;1.86;100.00;97315.66;1224563;75;2921747;-70
2023/12/10 10:02:39;;;;;;;40.15;25.55;;;;;;;2.05;100.00;97297.06;1225337;75;2919908;-70
2023/12/10 10:05:12;;;;;;;38.85;24.65;;;;;;;2.01;100.00;97310.63;1224954;75;2920679;-70
2023/12/10 10:07:48;;;;;;;31.35;19.95;;;;;;;2.45;100.00;97315.63;1225145;75;2918393;-71
2023/12/10 10:10:22;;;;;;;42.10;26.00;;;;;;;2.17;100.00;97317.19;1225366;75;2918904;-69
2023/12/10 10:12:58;;;;;;;36.70;24.00;;;;;;;2.33;100.00;97325.19;1225418;75;2913282;-67
2023/12/10 10:15:33;;;;;;;33.05;21.30;;;;;;;2.74;100.00;97337.16;1224288;75;2921957;-69
2023/12/10 10:18:08;;;;;;;46.00;28.25;;;;;;;2.13;100.00;97314.56;1225959;75;2916062;-69
2023/12/10 10:20:43;;;;;;;45.10;27.15;;;;;;;2.50;100.00;97315.06;1224818;75;2914603;-70
2023/12/10 10:23:20;;;;;;;36.80;23.00;;;;;;;2.63;100.00;97320.53;1225482;75;2917696;-69
2023/12/10 10:25:53;;;;;;;35.70;22.00;;;;;;;2.71;100.00;97319.88;1224655;75;2908406;-68
2023/12/10 10:28:26;;;;;;;37.15;24.00;;;;;;;2.56;100.00;97322.22;1225111;75;2916501;-67
2023/12/10 10:31:01;;;;;;;43.15;28.35;;;;;;;2.53;100.00;97323.09;1224949;75;2913410;-70
2023/12/10 10:33:34;;;;;;;48.40;27.95;;;;;;;2.25;100.00;97326.59;1223991;75;2918527;-70
2023/12/10 10:36:08;;;;;;;46.85;28.45;;;;;;;2.23;100.00;97329.72;1224752;75;2917323;-67
2023/12/10 10:38:44;;;;;;;48.15;28.10;;;;;;;2.42;100.00;97317.22;1224735;75;2927846;-68
2023/12/10 10:41:17;;;;;;;46.70;27.80;;;;;;;2.76;100.00;97321.28;1224785;75;2920816;-65
2023/12/10 10:43:50;;;;;;;47.95;30.30;;;;;;;2.78;100.00;97327.00;1225633;75;2917551;-70
2023/12/10 10:46:25;;;;;;;51.75;31.40;;;;;;;2.15;100.00;97314.91;1224667;75;2909434;-70
2023/12/10 10:48:59;;;;;;;49.70;30.05;;;;;;;2.72;100.00;97318.69;1224483;75;2927900;-69
2023/12/10 10:51:35;;;;;;;45.30;28.05;;;;;;;2.48;100.00;97326.34;1224046;75;2916772;-71
2023/12/10 10:54:12;;;;;;;47.28;30.48;;;;;;;2.48;100.00;97322.88;1200089;75;5794926;-63
2023/12/10 10:56:47;;;;;;;51.45;32.05;;;;;;;2.46;100.00;97322.53;1224990;75;2926208;-72
2023/12/10 10:59:33;;;;;;;47.35;28.85;;;;;;;3.02;100.00;97330.16;1226170;75;2915673;-70
2023/12/10 11:02:09;;;;;;;51.35;31.05;;;;;;;2.52;100.00;97321.56;1225783;75;2916628;-71
2023/12/10 11:04:44;;;;;;;55.00;32.60;;;;;;;2.93;100.00;97341.63;1225200;75;2916942;-66
2023/12/10 11:07:21;;;;;;;52.70;32.45;;;;;;;3.65;100.00;97325.13;1224686;75;2916673;-70
2023/12/10 11:10:05;;;;;;;48.60;31.10;;;;;;;4.64;97.34;97344.50;1224875;83;2914100;-71
2023/12/10 11:12:51;;;;;;;53.25;31.25;;;;;;;4.61;95.48;97353.53;1224714;75;2927110;-66
2023/12/10 11:15:28;;;;;;;48.55;31.10;;;;;;;4.58;100.00;97349.00;1224559;75;2931158;-66
2023/12/10 11:18:06;;;;;;;46.00;28.10;;;;;;;5.24;90.76;97349.63;1224545;75;2920100;-70
2023/12/10 11:20:42;;;;;;;46.00;30.30;;;;;;;6.12;85.98;97351.91;1225257;75;2923265;-70
2023/12/10 11:23:17;;;;;;;45.20;28.55;;;;;;;5.57;86.60;97349.13;1225191;75;2923898;-68
2023/12/10 11:25:55;;;;;;;40.95;26.70;;;;;;;5.54;86.03;97342.63;1224995;75;2914515;-68
2023/12/10 11:28:28;;;;;;;45.30;28.80;;;;;;;6.93;79.95;97345.31;1224922;75;2923174;-65